Hovedside
METAR-TAF:

METAR-TAF

Lufthavner :

Tammerfors-Birkala lufthavn

Tammerfors, Finland

breddegrad: 61-25N, lengdegrad: 023-35E, høyde over havet: 112 m

Gjeldene værobservasjon

Denne rapporten ble laget for 28 minutter siden, klokken 18:20 UTC
Vind 1 kt fra Sør
Temperatur -6°C
Luftfuktighet 100%
Trykk 1038 hPa
Sikt 10 km eller mer
ingen skyer under 1500 m og ingen bygeskyer

METAR: EFTP 191820Z AUTO 19001KT CAVOK M06/M06 Q1038

Tid: 20:48 (18:48 UTC)

Varsel

Denne rapporten ble laget for 1 time og 23 minutter siden, klokken 17:25 UTC
Varsel gyldig fra 19. klokken 18 UTC til 20. klokken 18 UTC
Vind 2 kt fra skiftende retning
Sikt 10 km eller mer
ingen skyer under 1500 m og ingen bygeskyer
Sannsynlighet 30%
fra 19. klokken 19 UTC til 19. klokken 23 UTC
Brutte skyer i en høyde av 1300 ft

TAF: EFTP 191725Z 1918/2018 VRB02KT CAVOK PROB30 1919/1923 BKN013

Værobservasjoner og værvarsel for over 4000 flyplasser (METAR- og TAF-rapporter).

Tilgjengelige stasjoner er representert av de røde og gule prikkene på kartet.

Hold musepekeren over prikken for å se navnet på stasjonen.

Klikk så for å se værobservasjoner og -varsler.

For å forandre kartet kan du klikke på den grønne knappen med svart kryss for å zoome inn, på den grønne knappen med strek for å zoome ut, eller på de grønne pilene for å se tilstøtende kart.


METAR-TAF: